Time;durP1;ratioP1;P1;durP2;ratioP2;P2;SDS_P1;SDS_P2;PMS_P1;PMS_P2;Temp;Humidity;BMP_temperature;BMP_pressure;BME280_temperature;BME280_humidity;BME280_pressure;Samples;Min_cycle;Max_cycle;Signal;HPM_P1;HPM_P2
2021/11/15 00:00:44;;;;;;;;;;;;;;;;;;;;;
2021/11/15 00:03:11;;;;;;;;;0.00;0.00;;;;;;;;4986299;28;35742;-81
2021/11/15 00:05:36;;;;;;;;;0.00;0.00;;;;;;;;4992796;28;8873;-81
2021/11/15 00:08:04;;;;;;;;;0.00;0.00;;;;;;;;4993227;28;8844;-81
2021/11/15 00:10:40;;;;;;;;;0.00;0.00;;;;;;;;4975402;28;8853;-82
2021/11/15 00:13:06;;;;;;;;;0.00;0.00;;;;;;;;4993243;28;8807;-81
2021/11/15 00:15:33;;;;;;;;;0.00;0.00;;;;;;;;4992387;28;8843;-81
2021/11/15 00:17:58;;;;;;;;;0.00;0.00;;;;;;;;4992616;28;8792;-81
2021/11/15 00:20:26;;;;;;;;;0.00;0.00;;;;;;;;4975196;28;8831;-81
2021/11/15 00:22:51;;;;;;;;;0.00;0.00;;;;;;;;4975424;28;8768;-81
2021/11/15 00:25:17;;;;;;;;;0.00;0.00;;;;;;;;4992530;28;9586;-81
2021/11/15 01:32:05;;;;;;;;;0.00;0.00;;;;;;;;5746594;22;15083407;-79
2021/11/15 01:34:43;;;;;;;;;0.00;0.00;;;;;;;;6390854;22;11369;-79
2021/11/15 01:37:09;;;;;;;;;0.00;0.00;;;;;;;;6391362;22;8761;-79
2021/11/15 01:39:47;;;;;;;;;0.00;0.00;;;;;;;;6391657;22;8858;-79
2021/11/15 01:42:18;;;;;;;;;0.00;0.00;;;;;;;;6363050;22;8751;-79
2021/11/15 01:44:52;;;;;;;;;0.00;0.00;;;;;;;;6388135;22;8728;-79
2021/11/15 01:47:22;;;;;;;;;0.00;0.00;;;;;;;;6356169;22;8759;-79
2021/11/15 01:49:51;;;;;;;;;0.00;0.00;;;;;;;;6384221;22;8716;-79
2021/11/15 01:52:16;;;;;;;;;0.00;0.00;;;;;;;;6356079;22;8675;-79
2021/11/15 01:54:42;;;;;;;;;0.00;0.00;;;;;;;;6355622;22;9468;-79
2021/11/15 01:57:12;;;;;;;;;0.00;0.00;;;;;;;;6384997;22;8720;-79
2021/11/15 01:59:40;;;;;;;;;0.00;0.00;;;;;;;;6355383;22;8673;-79
2021/11/15 02:02:08;;;;;;;;;0.00;0.00;;;;;;;;6384699;22;8736;-79
2021/11/15 02:04:38;;;;;;;;;0.00;0.00;;;;;;;;6356505;22;8778;-79
2021/11/15 02:07:14;;;;;;;;;0.00;0.00;;;;;;;;6384809;22;8736;-79
2021/11/15 02:09:39;;;;;;;;;0.00;0.00;;;;;;;;6384755;22;8732;-79
2021/11/15 02:12:07;;;;;;;;;0.00;0.00;;;;;;;;6356544;22;8805;-79
2021/11/15 02:14:43;;;;;;;;;0.00;0.00;;;;;;;;6355739;22;8834;-79
2021/11/15 02:17:33;;;;;;;;;0.00;0.00;;;;;;;;6384440;22;8723;-79
2021/11/15 02:20:22;;;;;;;;;0.00;0.00;;;;;;;;6354982;22;8720;-79
2021/11/15 02:22:58;;;;;;;;;;;;;;;;;;;;;
2021/11/15 02:25:27;;;;;;;;;0.00;0.00;;;;;;;;6383404;22;36966;-79
2021/11/15 02:28:01;;;;;;;;;0.00;0.00;;;;;;;;6384078;22;8740;-79
2021/11/15 02:30:31;;;;;;;;;0.00;0.00;;;;;;;;6384420;22;8803;-79
2021/11/15 02:33:09;;;;;;;;;;;;;;;;;;;;;
2021/11/15 02:35:46;;;;;;;;;0.00;0.00;;;;;;;;6383474;22;36879;-79
2021/11/15 02:38:17;;;;;;;;;0.00;0.00;;;;;;;;6384679;22;8846;-79
2021/11/15 02:40:42;;;;;;;;;0.00;0.00;;;;;;;;6355847;22;8780;-79
2021/11/15 02:43:18;;;;;;;;;;;;;;;;;;;;;
2021/11/15 02:46:01;;;;;;;;;0.00;0.00;;;;;;;;6382053;22;35688;-79
2021/11/15 02:48:38;;;;;;;;;;;;;;;;;;;;;
2021/11/15 02:51:26;;;;;;;;;;;;;;;;;;;;;
2021/11/15 02:54:02;;;;;;;;;0.00;0.00;;;;;;;;6382982;22;36820;-79
2021/11/15 02:56:32;;;;;;;;;0.00;0.00;;;;;;;;6384088;22;8720;-79
2021/11/15 02:59:02;;;;;;;;;0.00;0.00;;;;;;;;6383834;22;8870;-79
2021/11/15 03:01:35;;;;;;;;;0.00;0.00;;;;;;;;6355759;22;8891;-79
2021/11/15 03:04:07;;;;;;;;;0.00;0.00;;;;;;;;6384198;22;8716;-79
2021/11/15 03:06:36;;;;;;;;;0.00;0.00;;;;;;;;6355591;22;8684;-79
2021/11/15 03:09:19;;;;;;;;;0.00;0.00;;;;;;;;6384602;22;8743;-80
2021/11/15 03:11:52;;;;;;;;;0.00;0.00;;;;;;;;6384319;22;8703;-79
2021/11/15 03:14:17;;;;;;;;;0.00;0.00;;;;;;;;6356028;22;8751;-78
2021/11/15 03:16:45;;;;;;;;;0.00;0.00;;;;;;;;6383782;22;8778;-78
2021/11/15 03:19:11;;;;;;;;;0.00;0.00;;;;;;;;6355603;22;8669;-78
2021/11/15 03:21:38;;;;;;;;;0.00;0.00;;;;;;;;6384260;22;8884;-79
2021/11/15 03:24:06;;;;;;;;;0.00;0.00;;;;;;;;6355439;22;8754;-79
2021/11/15 03:26:42;;;;;;;;;;;;;;;;;;;;;
2021/11/15 03:29:10;;;;;;;;;0.00;0.00;;;;;;;;6383270;22;36708;-79
2021/11/15 03:31:44;;;;;;;;;0.00;0.00;;;;;;;;6355301;22;9606;-79
2021/11/15 03:34:31;;;;;;;;;0.00;0.00;;;;;;;;6355651;22;8755;-79
2021/11/15 03:37:05;;;;;;;;;0.00;0.00;;;;;;;;6367859;22;8760;-79
2021/11/15 03:39:33;;;;;;;;;0.00;0.00;;;;;;;;6355811;22;8716;-79
2021/11/15 03:42:06;;;;;;;;;0.00;0.00;;;;;;;;6355187;22;8775;-79
2021/11/15 03:44:51;;;;;;;;;0.00;0.00;;;;;;;;6355516;22;8736;-79
2021/11/15 03:47:42;;;;;;;;;0.00;0.00;;;;;;;;6355504;22;8732;-79
2021/11/15 03:50:09;;;;;;;;;0.00;0.00;;;;;;;;6375391;22;8785;-79
2021/11/15 03:52:57;;;;;;;;;0.00;0.00;;;;;;;;6355704;22;8728;-79
2021/11/15 03:55:35;;;;;;;;;;;;;;;;;;;;;
2021/11/15 03:58:00;;;;;;;;;0.00;0.00;;;;;;;;6382901;22;37055;-79
2021/11/15 04:00:33;;;;;;;;;0.00;0.00;;;;;;;;6355176;22;8736;-79
2021/11/15 04:03:02;;;;;;;;;0.00;0.00;;;;;;;;6354971;22;8748;-80
2021/11/15 04:05:32;;;;;;;;;0.00;0.00;;;;;;;;6355495;22;8795;-79
2021/11/15 04:08:17;;;;;;;;;0.00;0.00;;;;;;;;6354719;22;8704;-79
2021/11/15 04:10:53;;;;;;;;;;;;;;;;;;;;;
2021/11/15 04:13:48;;;;;;;;;;;;;;;;;;;;;
2021/11/15 04:16:36;;;;;;;;;0.00;0.00;;;;;;;;6382219;22;36908;-79
2021/11/15 04:19:06;;;;;;;;;0.00;0.00;;;;;;;;6382211;22;8827;-79
2021/11/15 04:21:39;;;;;;;;;0.00;0.00;;;;;;;;6384020;22;8859;-79
2021/11/15 04:24:08;;;;;;;;;0.00;0.00;;;;;;;;6384087;22;8712;-79
2021/11/15 04:29:40;;;;;;;;;;;;;;;;;;;;;
2021/11/15 04:32:09;;;;;;;;;0.00;0.00;;;;;;;;6382087;22;35754;-79
2021/11/15 04:34:57;;;;;;;;;0.00;0.00;;;;;;;;6355539;22;8765;-79
2021/11/15 04:37:22;;;;;;;;;0.00;0.00;;;;;;;;6383734;22;8732;-79
2021/11/15 04:39:57;;;;;;;;;0.00;0.00;;;;;;;;6384110;22;8789;-79
2021/11/15 04:42:22;;;;;;;;;0.00;0.00;;;;;;;;6355180;22;8744;-79
2021/11/15 04:44:48;;;;;;;;;0.00;0.00;;;;;;;;6383448;22;8743;-78
2021/11/15 04:47:26;;;;;;;;;;;;;;;;;;;;;
2021/11/15 04:49:54;;;;;;;;;0.00;0.00;;;;;;;;6382304;22;37013;-79
2021/11/15 04:52:40;;;;;;;;;0.00;0.00;;;;;;;;6354889;22;8731;-79
2021/11/15 04:55:11;;;;;;;;;0.00;0.00;;;;;;;;6355569;22;9720;-79
2021/11/15 04:57:48;;;;;;;;;0.00;0.00;;;;;;;;6383371;22;8716;-79
2021/11/15 05:00:29;;;;;;;;;0.00;0.00;;;;;;;;6354719;22;8793;-79
2021/11/15 05:02:54;;;;;;;;;0.00;0.00;;;;;;;;6354680;22;8747;-79
2021/11/15 05:05:20;;;;;;;;;0.00;0.00;;;;;;;;6355293;22;8860;-79
2021/11/15 05:07:58;;;;;;;;;0.00;0.00;;;;;;;;6383688;22;8838;-78
2021/11/15 05:10:31;;;;;;;;;0.00;0.00;;;;;;;;6383708;22;9555;-78
2021/11/15 05:12:57;;;;;;;;;0.00;0.00;;;;;;;;6383408;22;8778;-79
2021/11/15 05:15:28;;;;;;;;;0.00;0.00;;;;;;;;6354643;22;8728;-79
2021/11/15 05:18:16;;;;;;;;;0.00;0.00;;;;;;;;6383386;22;8724;-80
2021/11/15 05:21:05;;;;;;;;;0.00;0.00;;;;;;;;6384257;22;8822;-79
2021/11/15 05:23:43;;;;;;;;;0.00;0.00;;;;;;;;6356823;22;8724;-81
2021/11/15 05:28:59;;;;;;;;;0.00;0.00;;;;;;;;6384812;22;8672;-81
2021/11/15 05:31:25;;;;;;;;;0.00;0.00;;;;;;;;6356123;22;8752;-81
2021/11/15 05:33:52;;;;;;;;;0.00;0.00;;;;;;;;6356415;22;8806;-81
2021/11/15 05:36:18;;;;;;;;;0.00;0.00;;;;;;;;6356300;22;8740;-81
2021/11/15 05:38:43;;;;;;;;;0.00;0.00;;;;;;;;6384648;22;8735;-81
2021/11/15 05:41:08;;;;;;;;;0.00;0.00;;;;;;;;6385157;22;8743;-80
2021/11/15 05:43:34;;;;;;;;;0.00;0.00;;;;;;;;6385123;22;8740;-81
2021/11/15 05:45:59;;;;;;;;;0.00;0.00;;;;;;;;6384587;22;8754;-81
2021/11/15 05:48:35;;;;;;;;;0.00;0.00;;;;;;;;6356605;22;8839;-81
2021/11/15 05:51:03;;;;;;;;;0.00;0.00;;;;;;;;6384746;22;8736;-81
2021/11/15 05:53:38;;;;;;;;;0.00;0.00;;;;;;;;6385171;22;8754;-80
2021/11/15 05:56:07;;;;;;;;;0.00;0.00;;;;;;;;6356684;22;9148;-80
2021/11/15 05:58:32;;;;;;;;;0.00;0.00;;;;;;;;6356669;22;8744;-81
2021/11/15 06:01:03;;;;;;;;;0.00;0.00;;;;;;;;6355283;22;8735;-81
2021/11/15 06:03:29;;;;;;;;;0.00;0.00;;;;;;;;6384990;22;8806;-80
2021/11/15 06:05:54;;;;;;;;;0.00;0.00;;;;;;;;6356093;22;8755;-81
2021/11/15 06:08:35;;;;;;;;;0.00;0.00;;;;;;;;6356371;22;8784;-81
2021/11/15 06:11:00;;;;;;;;;0.00;0.00;;;;;;;;6355714;22;8728;-80
2021/11/15 06:13:28;;;;;;;;;0.00;0.00;;;;;;;;6385295;22;8832;-81
2021/11/15 06:15:53;;;;;;;;;0.00;0.00;;;;;;;;6355902;22;8729;-81
2021/11/15 06:18:19;;;;;;;;;0.00;0.00;;;;;;;;6356348;22;8741;-80
2021/11/15 06:20:44;;;;;;;;;0.00;0.00;;;;;;;;6355761;22;8760;-80
2021/11/15 06:23:09;;;;;;;;;0.00;0.00;;;;;;;;6357696;22;8736;-81
2021/11/15 06:25:35;;;;;;;;;0.00;0.00;;;;;;;;6385284;22;8756;-80
2021/11/15 06:28:01;;;;;;;;;0.00;0.00;;;;;;;;6384944;22;8735;-81
2021/11/15 06:30:26;;;;;;;;;0.00;0.00;;;;;;;;6384630;22;8918;-80
2021/11/15 06:32:52;;;;;;;;;0.00;0.00;;;;;;;;6355326;22;8760;-81
2021/11/15 06:35:23;;;;;;;;;0.00;0.00;;;;;;;;6384891;22;8780;-81
2021/11/15 06:37:53;;;;;;;;;0.00;0.00;;;;;;;;6355658;22;8740;-81
2021/11/15 06:40:19;;;;;;;;;0.00;0.00;;;;;;;;6384891;22;8754;-80
2021/11/15 06:42:45;;;;;;;;;0.00;0.00;;;;;;;;6385021;22;8732;-80
2021/11/15 06:45:11;;;;;;;;;0.00;0.00;;;;;;;;6384357;22;8817;-80
2021/11/15 06:47:37;;;;;;;;;0.00;0.00;;;;;;;;6384673;22;8736;-79
2021/11/15 06:50:12;;;;;;;;;0.00;0.00;;;;;;;;6384603;22;8744;-81
2021/11/15 06:52:41;;;;;;;;;0.00;0.00;;;;;;;;6384327;22;8858;-82
2021/11/15 06:55:53;;;;;;;;;;;;;;;;;;;;;
2021/11/15 07:11:35;;;;;;;;;;;;;;;;;;;;;
2021/11/15 07:45:44;;;;;;;;;0.00;0.00;;;;;;;;5884289;24;8797;-79
2021/11/15 07:48:10;;;;;;;;;0.00;0.00;;;;;;;;5976292;23;8755;-80
2021/11/15 07:50:36;;;;;;;;;0.00;0.00;;;;;;;;6192945;22;8755;-80
2021/11/15 07:53:01;;;;;;;;;0.00;0.00;;;;;;;;6321250;22;8826;-80
2021/11/15 07:55:27;;;;;;;;;0.00;0.00;;;;;;;;6321398;22;8748;-80
2021/11/15 07:57:52;;;;;;;;;0.00;0.00;;;;;;;;6293498;22;8764;-80
2021/11/15 08:00:21;;;;;;;;;0.00;0.00;;;;;;;;6320900;22;8716;-80
2021/11/15 08:02:47;;;;;;;;;0.00;0.00;;;;;;;;6321377;22;8723;-79
2021/11/15 08:05:14;;;;;;;;;0.00;0.00;;;;;;;;6321207;22;8724;-80
2021/11/15 08:07:42;;;;;;;;;0.00;0.00;;;;;;;;6293223;22;9615;-80
2021/11/15 08:10:08;;;;;;;;;0.00;0.00;;;;;;;;6321103;22;8724;-80
2021/11/15 08:12:37;;;;;;;;;0.00;0.00;;;;;;;;6321288;22;8687;-80
2021/11/15 08:15:08;;;;;;;;;0.00;0.00;;;;;;;;6323226;22;9658;-80
2021/11/15 08:17:35;;;;;;;;;0.00;0.00;;;;;;;;6352973;22;8715;-80
2021/11/15 08:20:01;;;;;;;;;0.00;0.00;;;;;;;;6352516;22;8708;-80
2021/11/15 08:22:27;;;;;;;;;0.00;0.00;;;;;;;;6324315;22;8750;-80
2021/11/15 08:25:11;;;;;;;;;0.00;0.00;;;;;;;;6352297;22;8740;-77
2021/11/15 08:27:36;;;;;;;;;0.00;0.00;;;;;;;;6352759;22;8727;-79
2021/11/15 08:30:03;;;;;;;;;0.00;0.00;;;;;;;;6324258;22;9913;-80
2021/11/15 08:32:28;;;;;;;;;0.00;0.00;;;;;;;;6329827;22;8767;-80
2021/11/15 08:34:55;;;;;;;;;0.00;0.00;;;;;;;;6355552;22;8830;-80
2021/11/15 08:37:22;;;;;;;;;0.00;0.00;;;;;;;;6384195;22;8713;-79
2021/11/15 08:39:55;;;;;;;;;0.00;0.00;;;;;;;;6355604;22;8752;-81
2021/11/15 08:42:20;;;;;;;;;0.00;0.00;;;;;;;;6355362;22;8844;-77
2021/11/15 08:44:54;;;;;;;;;0.00;0.00;;;;;;;;6383555;22;8745;-77
2021/11/15 08:47:20;;;;;;;;;0.00;0.00;;;;;;;;6384204;22;8714;-79
2021/11/15 08:49:45;;;;;;;;;0.00;0.00;;;;;;;;6384193;22;8825;-80
2021/11/15 08:52:11;;;;;;;;;0.00;0.00;;;;;;;;6384234;22;8777;-79
2021/11/15 08:54:39;;;;;;;;;0.00;0.00;;;;;;;;6384222;22;8761;-80
2021/11/15 08:57:05;;;;;;;;;0.00;0.00;;;;;;;;6385764;22;8726;-80
2021/11/15 08:59:31;;;;;;;;;0.00;0.00;;;;;;;;6385209;22;8761;-79
2021/11/15 09:01:57;;;;;;;;;0.00;0.00;;;;;;;;6385033;22;8749;-80
2021/11/15 09:04:22;;;;;;;;;0.00;0.00;;;;;;;;6385569;22;8749;-80
2021/11/15 09:06:48;;;;;;;;;0.00;0.00;;;;;;;;6385041;22;9512;-80
2021/11/15 09:09:16;;;;;;;;;0.00;0.00;;;;;;;;6385512;22;8722;-80
2021/11/15 09:11:52;;;;;;;;;0.00;0.00;;;;;;;;6385249;22;8713;-80
2021/11/15 09:14:18;;;;;;;;;0.00;0.00;;;;;;;;6356890;22;8803;-80
2021/11/15 09:16:44;;;;;;;;;0.00;0.00;;;;;;;;6384962;22;8714;-80
2021/11/15 09:19:13;;;;;;;;;0.00;0.00;;;;;;;;6385448;22;8819;-80
2021/11/15 09:21:42;;;;;;;;;0.00;0.00;;;;;;;;6356383;22;8744;-80
2021/11/15 09:24:07;;;;;;;;;0.00;0.00;;;;;;;;6356895;22;8875;-80
2021/11/15 09:26:33;;;;;;;;;0.00;0.00;;;;;;;;6357033;22;8757;-80
2021/11/15 09:28:59;;;;;;;;;0.00;0.00;;;;;;;;6385132;22;8737;-80
2021/11/15 09:31:25;;;;;;;;;0.00;0.00;;;;;;;;6385276;22;8682;-80
2021/11/15 09:33:54;;;;;;;;;0.00;0.00;;;;;;;;6384359;22;8760;-80
2021/11/15 09:36:23;;;;;;;;;0.00;0.00;;;;;;;;6356580;22;8720;-80
2021/11/15 09:38:50;;;;;;;;;0.00;0.00;;;;;;;;6385132;22;8720;-80
2021/11/15 09:41:17;;;;;;;;;0.00;0.00;;;;;;;;6357173;22;8848;-80
2021/11/15 09:43:46;;;;;;;;;0.00;0.00;;;;;;;;6384951;22;8753;-80
2021/11/15 09:46:13;;;;;;;;;0.00;0.00;;;;;;;;6384815;22;8716;-80
2021/11/15 09:48:40;;;;;;;;;0.00;0.00;;;;;;;;6384866;22;8704;-80
2021/11/15 09:51:06;;;;;;;;;0.00;0.00;;;;;;;;6385553;22;8657;-79
2021/11/15 09:53:31;;;;;;;;;0.00;0.00;;;;;;;;6385251;22;8755;-80
2021/11/15 09:55:58;;;;;;;;;0.00;0.00;;;;;;;;6384757;22;8744;-80
2021/11/15 09:58:26;;;;;;;;;0.00;0.00;;;;;;;;6356823;22;8721;-80
2021/11/15 10:00:54;;;;;;;;;0.00;0.00;;;;;;;;6384850;22;8731;-80
2021/11/15 10:03:20;;;;;;;;;0.00;0.00;;;;;;;;6385057;22;8712;-77
2021/11/15 10:05:47;;;;;;;;;0.00;0.00;;;;;;;;6384216;22;8821;-77
2021/11/15 10:08:12;;;;;;;;;0.00;0.00;;;;;;;;6385069;22;8728;-78
2021/11/15 10:10:39;;;;;;;;;0.00;0.00;;;;;;;;6384601;22;8712;-77
2021/11/15 10:13:15;;;;;;;;;0.00;0.00;;;;;;;;6384781;22;8739;-77
2021/11/15 10:15:45;;;;;;;;;0.00;0.00;;;;;;;;6384373;22;8712;-80
2021/11/15 10:18:12;;;;;;;;;0.00;0.00;;;;;;;;6356751;22;8843;-79
2021/11/15 10:20:46;;;;;;;;;0.00;0.00;;;;;;;;6385208;22;8709;-79
2021/11/15 10:23:28;;;;;;;;;0.00;0.00;;;;;;;;6385210;22;8735;-79
2021/11/15 10:25:58;;;;;;;;;0.00;0.00;;;;;;;;6356197;22;8738;-80
2021/11/15 10:28:23;;;;;;;;;0.00;0.00;;;;;;;;6385467;22;8708;-80
2021/11/15 10:30:49;;;;;;;;;0.00;0.00;;;;;;;;6384519;22;8771;-80
2021/11/15 10:33:17;;;;;;;;;0.00;0.00;;;;;;;;6351023;22;8785;-80
2021/11/15 10:35:45;;;;;;;;;0.00;0.00;;;;;;;;6351152;22;8671;-80
2021/11/15 10:38:10;;;;;;;;;0.00;0.00;;;;;;;;6352707;22;8731;-80
2021/11/15 10:40:37;;;;;;;;;0.00;0.00;;;;;;;;6353077;22;8747;-80
2021/11/15 10:43:07;;;;;;;;;0.00;0.00;;;;;;;;6352686;22;8731;-80
2021/11/15 10:45:32;;;;;;;;;0.00;0.00;;;;;;;;6351048;22;8739;-80
2021/11/15 10:47:59;;;;;;;;;0.00;0.00;;;;;;;;6352893;22;8735;-80
2021/11/15 10:50:43;;;;;;;;;0.00;0.00;;;;;;;;6353073;22;8667;-80
2021/11/15 10:53:12;;;;;;;;;0.00;0.00;;;;;;;;6352786;22;8788;-79
2021/11/15 10:55:40;;;;;;;;;0.00;0.00;;;;;;;;6351201;22;8753;-79
2021/11/15 10:58:16;;;;;;;;;0.00;0.00;;;;;;;;6353335;22;8806;-80
2021/11/15 11:00:50;;;;;;;;;0.00;0.00;;;;;;;;6352721;22;8767;-79
2021/11/15 11:03:27;;;;;;;;;0.00;0.00;;;;;;;;6353244;22;8739;-80
2021/11/15 11:05:54;;;;;;;;;0.00;0.00;;;;;;;;6350393;22;8706;-80
2021/11/15 11:08:30;;;;;;;;;0.00;0.00;;;;;;;;6352500;22;8760;-80
2021/11/15 11:11:17;;;;;;;;;0.00;0.00;;;;;;;;6352667;22;8715;-80
2021/11/15 11:13:55;;;;;;;;;0.00;0.00;;;;;;;;6348781;22;8746;-80
2021/11/15 11:16:35;;;;;;;;;0.00;0.00;;;;;;;;6352930;22;8835;-80
2021/11/15 11:22:36;;;;;;;;;0.00;0.00;;;;;;;;6332977;22;8741;-80
2021/11/15 11:25:06;;;;;;;;;0.00;0.00;;;;;;;;6352064;22;8762;-80
2021/11/15 11:27:35;;;;;;;;;0.00;0.00;;;;;;;;6351193;22;8765;-80
2021/11/15 11:30:00;;;;;;;;;0.00;0.00;;;;;;;;6352333;22;8723;-80
2021/11/15 11:32:27;;;;;;;;;0.00;0.00;;;;;;;;6355759;22;8760;-80
2021/11/15 11:34:56;;;;;;;;;0.00;0.00;;;;;;;;6384296;22;8816;-80
2021/11/15 11:37:23;;;;;;;;;0.00;0.00;;;;;;;;6384347;22;8735;-79
2021/11/15 11:39:49;;;;;;;;;0.00;0.00;;;;;;;;6384521;22;8713;-79
2021/11/15 11:42:15;;;;;;;;;0.00;0.00;;;;;;;;6384669;22;8728;-79
2021/11/15 11:44:41;;;;;;;;;0.00;0.00;;;;;;;;6384522;22;8720;-79
2021/11/15 11:47:08;;;;;;;;;0.00;0.00;;;;;;;;6384456;22;8719;-79
2021/11/15 11:49:35;;;;;;;;;0.00;0.00;;;;;;;;6355420;22;8713;-79
2021/11/15 11:52:02;;;;;;;;;0.00;0.00;;;;;;;;6383846;22;8939;-79
2021/11/15 11:54:35;;;;;;;;;0.00;0.00;;;;;;;;6384546;22;8703;-80
2021/11/15 11:57:06;;;;;;;;;0.00;0.00;;;;;;;;6355975;22;8751;-80
2021/11/15 11:59:33;;;;;;;;;0.00;0.00;;;;;;;;6356008;22;8902;-79
2021/11/15 12:02:20;;;;;;;;;0.00;0.00;;;;;;;;6384184;22;8708;-79
2021/11/15 12:04:49;;;;;;;;;0.00;0.00;;;;;;;;6383674;22;8828;-80
2021/11/15 12:07:29;;;;;;;;;0.00;0.00;;;;;;;;6353678;22;8790;-79
2021/11/15 12:09:55;;;;;;;;;0.00;0.00;;;;;;;;6382662;22;8721;-79
2021/11/15 12:12:21;;;;;;;;;0.00;0.00;;;;;;;;6382800;22;8664;-79
2021/11/15 12:14:46;;;;;;;;;0.00;0.00;;;;;;;;6384070;22;9471;-79
2021/11/15 12:17:14;;;;;;;;;0.00;0.00;;;;;;;;6384315;22;8720;-80
2021/11/15 12:19:49;;;;;;;;;0.00;0.00;;;;;;;;6355934;22;8715;-79
2021/11/15 12:22:16;;;;;;;;;0.00;0.00;;;;;;;;6384392;22;8724;-79
2021/11/15 12:25:00;;;;;;;;;0.00;0.00;;;;;;;;6383928;22;8708;-79
2021/11/15 12:27:44;;;;;;;;;0.00;0.00;;;;;;;;6384264;22;8758;-79
2021/11/15 12:30:20;;;;;;;;;0.00;0.00;;;;;;;;6384041;22;8720;-79
2021/11/15 12:32:47;;;;;;;;;0.00;0.00;;;;;;;;6383537;22;8740;-79
2021/11/15 12:35:13;;;;;;;;;0.00;0.00;;;;;;;;6384434;22;8815;-80
2021/11/15 12:37:45;;;;;;;;;0.00;0.00;;;;;;;;6384241;22;8708;-80
2021/11/15 12:40:30;;;;;;;;;0.00;0.00;;;;;;;;6384165;22;8750;-80
2021/11/15 12:43:25;;;;;;;;;0.00;0.00;;;;;;;;6384200;22;8744;-79
2021/11/15 12:46:06;;;;;;;;;0.00;0.00;;;;;;;;6361782;22;8732;-79
2021/11/15 12:48:33;;;;;;;;;0.00;0.00;;;;;;;;6384171;22;8721;-79
2021/11/15 12:51:08;;;;;;;;;0.00;0.00;;;;;;;;6383762;22;9635;-79
2021/11/15 12:53:33;;;;;;;;;0.00;0.00;;;;;;;;6384334;22;8751;-79
2021/11/15 12:55:59;;;;;;;;;0.00;0.00;;;;;;;;6384198;22;8735;-79
2021/11/15 12:58:24;;;;;;;;;0.00;0.00;;;;;;;;6384001;22;8757;-79
2021/11/15 13:00:49;;;;;;;;;0.00;0.00;;;;;;;;6383309;22;8766;-80
2021/11/15 13:03:15;;;;;;;;;0.00;0.00;;;;;;;;6383445;22;8728;-79
2021/11/15 13:05:42;;;;;;;;;0.00;0.00;;;;;;;;6383518;22;8742;-80
2021/11/15 13:08:09;;;;;;;;;0.00;0.00;;;;;;;;6383947;22;8712;-80
2021/11/15 13:10:35;;;;;;;;;0.00;0.00;;;;;;;;6383778;22;8697;-79
2021/11/15 13:13:01;;;;;;;;;0.00;0.00;;;;;;;;6383742;22;8807;-80
2021/11/15 13:15:27;;;;;;;;;0.00;0.00;;;;;;;;6355328;22;8921;-80
2021/11/15 13:17:53;;;;;;;;;0.00;0.00;;;;;;;;6383887;22;8755;-80
2021/11/15 13:20:19;;;;;;;;;0.00;0.00;;;;;;;;6383870;22;8748;-80
2021/11/15 13:22:46;;;;;;;;;0.00;0.00;;;;;;;;6383595;22;9452;-80
2021/11/15 13:25:12;;;;;;;;;0.00;0.00;;;;;;;;6383709;22;8720;-80
2021/11/15 13:27:37;;;;;;;;;0.00;0.00;;;;;;;;6383724;22;8665;-80
2021/11/15 13:30:04;;;;;;;;;0.00;0.00;;;;;;;;6383949;22;9496;-80
2021/11/15 13:32:30;;;;;;;;;0.00;0.00;;;;;;;;6383310;22;8708;-80
2021/11/15 13:34:56;;;;;;;;;0.00;0.00;;;;;;;;6383332;22;8684;-80
2021/11/15 13:37:22;;;;;;;;;0.00;0.00;;;;;;;;6383592;22;8716;-80
2021/11/15 13:39:51;;;;;;;;;0.00;0.00;;;;;;;;6383404;22;8726;-80
2021/11/15 13:42:17;;;;;;;;;0.00;0.00;;;;;;;;6384885;22;8741;-80
2021/11/15 13:44:43;;;;;;;;;0.00;0.00;;;;;;;;6355838;22;8736;-80
2021/11/15 13:47:15;;;;;;;;;0.00;0.00;;;;;;;;6356564;22;8787;-80
2021/11/15 13:49:41;;;;;;;;;0.00;0.00;;;;;;;;6356045;22;8728;-80
2021/11/15 13:52:08;;;;;;;;;0.00;0.00;;;;;;;;6385153;22;8771;-80
2021/11/15 13:54:37;;;;;;;;;0.00;0.00;;;;;;;;6385046;22;8716;-80
2021/11/15 13:57:06;;;;;;;;;0.00;0.00;;;;;;;;6356681;22;8720;-81
2021/11/15 13:59:31;;;;;;;;;0.00;0.00;;;;;;;;6385152;22;8732;-80
2021/11/15 14:01:57;;;;;;;;;0.00;0.00;;;;;;;;6356305;22;8759;-80
2021/11/15 14:04:22;;;;;;;;;0.00;0.00;;;;;;;;6385500;22;8732;-80
2021/11/15 14:06:47;;;;;;;;;0.00;0.00;;;;;;;;6385068;22;8736;-80
2021/11/15 14:09:13;;;;;;;;;0.00;0.00;;;;;;;;6356563;22;8862;-80
2021/11/15 14:11:56;;;;;;;;;0.00;0.00;;;;;;;;6385024;22;8775;-81
2021/11/15 14:14:24;;;;;;;;;0.00;0.00;;;;;;;;6356162;22;8751;-80
2021/11/15 14:16:54;;;;;;;;;0.00;0.00;;;;;;;;6384310;22;8866;-80
2021/11/15 14:19:19;;;;;;;;;0.00;0.00;;;;;;;;6385034;22;8708;-80
2021/11/15 14:21:45;;;;;;;;;0.00;0.00;;;;;;;;6355424;22;8756;-79
2021/11/15 14:24:10;;;;;;;;;0.00;0.00;;;;;;;;6384855;22;8724;-79
2021/11/15 14:26:35;;;;;;;;;0.00;0.00;;;;;;;;6385222;22;8768;-80
2021/11/15 14:29:01;;;;;;;;;0.00;0.00;;;;;;;;6355528;22;8764;-80
2021/11/15 14:31:26;;;;;;;;;0.00;0.00;;;;;;;;6384798;22;9424;-80
2021/11/15 14:33:55;;;;;;;;;0.00;0.00;;;;;;;;6383716;22;8802;-80
2021/11/15 14:36:20;;;;;;;;;0.00;0.00;;;;;;;;6384475;22;8720;-80
2021/11/15 14:38:55;;;;;;;;;0.00;0.00;;;;;;;;6384616;22;8901;-80
2021/11/15 14:41:21;;;;;;;;;0.00;0.00;;;;;;;;6384987;22;8716;-80
2021/11/15 14:44:15;;;;;;;;;0.00;0.00;;;;;;;;6355607;22;8748;-81
2021/11/15 14:47:05;;;;;;;;;;;;;;;;;;;;;
2021/11/15 14:52:41;;;;;;;;;0.00;0.00;;;;;;;;6356765;22;8712;-80
2021/11/15 14:55:14;;;;;;;;;0.00;0.00;;;;;;;;6383862;22;8736;-80
2021/11/15 14:58:19;;;;;;;;;;;;;;;;;;;;;
2021/11/15 15:00:57;;;;;;;;;;;;;;;;;;;;;
2021/11/15 15:03:31;;;;;;;;;0.00;0.00;;;;;;;;6383809;22;35552;-80
2021/11/15 15:05:59;;;;;;;;;0.00;0.00;;;;;;;;6384008;22;8778;-80
2021/11/15 15:08:32;;;;;;;;;0.00;0.00;;;;;;;;6385043;22;8665;-80
2021/11/15 15:13:53;;;;;;;;;0.00;0.00;;;;;;;;6255613;22;8753;-80
2021/11/15 15:16:30;;;;;;;;;0.00;0.00;;;;;;;;6369478;22;8850;-80
2021/11/15 15:19:08;;;;;;;;;0.00;0.00;;;;;;;;6355267;22;8829;-81
2021/11/15 15:31:43;;;;;;;;;0.00;0.00;;;;;;;;6194417;23;8764;-79
2021/11/15 15:59:57;;;;;;;;;0.00;0.00;;;;;;;;5932731;24;8804;-81
2021/11/15 16:03:01;;;;;;;;;;;;;;;;;;;;;
2021/11/15 16:08:31;;;;;;;;;0.00;0.00;;;;;;;;5952304;24;8754;-79
2021/11/15 16:18:39;;;;;;;;;0.00;0.00;;;;;;;;6352671;22;8719;-79
2021/11/15 16:21:04;;;;;;;;;0.00;0.00;;;;;;;;6352424;22;8743;-79
2021/11/15 16:23:29;;;;;;;;;0.00;0.00;;;;;;;;6352679;22;9525;-79
2021/11/15 16:25:55;;;;;;;;;0.00;0.00;;;;;;;;6350414;22;8773;-79
2021/11/15 16:28:20;;;;;;;;;0.00;0.00;;;;;;;;6352575;22;8883;-79
2021/11/15 16:30:46;;;;;;;;;0.00;0.00;;;;;;;;6350059;22;8762;-79
2021/11/15 16:33:11;;;;;;;;;0.00;0.00;;;;;;;;6361312;22;9466;-79
2021/11/15 16:35:38;;;;;;;;;0.00;0.00;;;;;;;;6383688;22;8801;-79
2021/11/15 16:38:03;;;;;;;;;0.00;0.00;;;;;;;;6384472;22;8793;-79
2021/11/15 16:40:28;;;;;;;;;0.00;0.00;;;;;;;;6384299;22;8772;-79
2021/11/15 16:42:54;;;;;;;;;0.00;0.00;;;;;;;;6384240;22;8797;-79
2021/11/15 16:45:20;;;;;;;;;0.00;0.00;;;;;;;;6384145;22;8779;-79
2021/11/15 16:47:45;;;;;;;;;0.00;0.00;;;;;;;;6355549;22;8736;-79
2021/11/15 16:50:10;;;;;;;;;0.00;0.00;;;;;;;;6384391;22;8736;-79
2021/11/15 16:52:37;;;;;;;;;0.00;0.00;;;;;;;;6355623;22;8748;-79
2021/11/15 16:55:03;;;;;;;;;0.00;0.00;;;;;;;;6384152;22;8689;-79
2021/11/15 16:57:30;;;;;;;;;0.00;0.00;;;;;;;;6355660;22;8744;-79
2021/11/15 16:59:56;;;;;;;;;0.00;0.00;;;;;;;;6383815;22;8720;-79
2021/11/15 17:02:23;;;;;;;;;0.00;0.00;;;;;;;;6384142;22;8732;-78
2021/11/15 17:04:49;;;;;;;;;0.00;0.00;;;;;;;;6383846;22;8704;-79
2021/11/15 17:07:16;;;;;;;;;0.00;0.00;;;;;;;;6384129;22;8728;-79
2021/11/15 17:09:42;;;;;;;;;0.00;0.00;;;;;;;;6354839;22;8805;-79
2021/11/15 17:12:08;;;;;;;;;0.00;0.00;;;;;;;;6383969;22;8697;-79
2021/11/15 17:14:34;;;;;;;;;0.00;0.00;;;;;;;;6383442;22;8755;-79
2021/11/15 17:17:00;;;;;;;;;0.00;0.00;;;;;;;;6384921;22;8733;-79
2021/11/15 17:19:28;;;;;;;;;0.00;0.00;;;;;;;;6385818;22;8740;-79
2021/11/15 17:21:53;;;;;;;;;0.00;0.00;;;;;;;;6385121;22;9677;-79
2021/11/15 17:24:19;;;;;;;;;0.00;0.00;;;;;;;;6385398;22;8840;-79
2021/11/15 17:26:44;;;;;;;;;0.00;0.00;;;;;;;;6385450;22;8752;-79
2021/11/15 17:29:10;;;;;;;;;0.00;0.00;;;;;;;;6356044;22;9460;-79
2021/11/15 17:31:37;;;;;;;;;0.00;0.00;;;;;;;;6356972;22;8812;-80
2021/11/15 17:34:03;;;;;;;;;0.00;0.00;;;;;;;;6383602;22;8747;-79
2021/11/15 17:36:29;;;;;;;;;0.00;0.00;;;;;;;;6356708;22;9650;-79
2021/11/15 17:38:55;;;;;;;;;0.00;0.00;;;;;;;;6384826;22;8716;-80
2021/11/15 17:57:12;;;;;;;;;0.00;0.00;;;;;;;;6195519;23;9161;-80
2021/11/15 17:59:40;;;;;;;;;0.00;0.00;;;;;;;;6170488;23;8763;-80
2021/11/15 18:02:45;;;;;;;;;;;;;;;;;;;;;
2021/11/15 18:05:10;;;;;;;;;0.00;0.00;;;;;;;;6190653;23;36277;-80
2021/11/15 18:07:36;;;;;;;;;0.00;0.00;;;;;;;;6210139;22;8759;-80
2021/11/15 18:10:04;;;;;;;;;0.00;0.00;;;;;;;;6287384;22;8736;-80
2021/11/15 18:12:35;;;;;;;;;0.00;0.00;;;;;;;;6381690;22;8813;-80
2021/11/15 18:15:03;;;;;;;;;0.00;0.00;;;;;;;;6355658;22;8700;-80
2021/11/15 18:17:31;;;;;;;;;0.00;0.00;;;;;;;;6385161;22;8822;-80
2021/11/15 18:19:58;;;;;;;;;0.00;0.00;;;;;;;;6356022;22;8736;-80
2021/11/15 18:22:31;;;;;;;;;0.00;0.00;;;;;;;;6385097;22;8716;-80
2021/11/15 18:25:05;;;;;;;;;0.00;0.00;;;;;;;;6355434;22;8744;-81
2021/11/15 18:37:02;;;;;;;;;0.00;0.00;;;;;;;;6127667;23;8743;-82
2021/11/15 18:39:57;;;;;;;;;0.00;0.00;;;;;;;;6261659;22;8731;-81
2021/11/15 18:43:16;;;;;;;;;0.00;0.00;;;;;;;;6244897;22;8735;-81
2021/11/15 18:46:24;;;;;;;;;0.00;0.00;;;;;;;;6135507;23;8725;-79
2021/11/15 19:05:38;;;;;;;;;0.00;0.00;;;;;;;;5961805;24;8867;-78